createdAt,value
2019-04-22T00:01:08.361Z,25.90
2019-04-22T00:03:43.389Z,21.95
2019-04-22T00:06:38.199Z,23.62
2019-04-22T00:09:08.937Z,28.77
2019-04-22T00:14:01.271Z,23.10
2019-04-22T00:16:45.440Z,29.48
2019-04-22T00:21:40.071Z,24.65
2019-04-22T00:24:12.083Z,23.73
2019-04-22T00:26:44.396Z,23.27
2019-04-22T00:29:34.488Z,23.67
2019-04-22T00:32:00.296Z,30.27
2019-04-22T00:34:30.181Z,23.15
2019-04-22T00:37:02.859Z,23.05
2019-04-22T00:39:37.254Z,25.05
2019-04-22T00:42:09.951Z,26.15
2019-04-22T00:44:41.537Z,25.92
2019-04-22T00:47:09.285Z,26.50
2019-04-22T00:50:06.333Z,27.07
2019-04-22T00:52:10.817Z,28.20
2019-04-22T00:54:49.550Z,30.85
2019-04-22T00:57:12.080Z,27.93
2019-04-22T00:59:45.434Z,29.07
2019-04-22T01:02:13.394Z,27.52
2019-04-22T01:04:46.572Z,32.90
2019-04-22T01:07:11.542Z,30.08
2019-04-22T01:09:56.563Z,30.50
2019-04-22T01:12:22.628Z,36.38
2019-04-22T01:14:51.877Z,28.98
2019-04-22T01:17:19.072Z,26.40
2019-04-22T01:19:58.706Z,27.15
2019-04-22T01:22:17.705Z,29.05
2019-04-22T01:24:50.240Z,28.75
2019-04-22T01:27:11.596Z,30.90
2019-04-22T01:29:41.027Z,32.50
2019-04-22T01:32:00.420Z,31.77
2019-04-22T01:34:49.321Z,34.55
2019-04-22T01:37:20.239Z,33.40
2019-04-22T01:39:57.036Z,29.90
2019-04-22T01:42:24.603Z,39.27
2019-04-22T01:45:03.565Z,33.33
2019-04-22T01:47:34.258Z,34.50
2019-04-22T01:50:04.275Z,32.70
2019-04-22T01:52:29.386Z,39.63
2019-04-22T01:55:15.824Z,38.38
2019-04-22T01:57:37.663Z,38.83
2019-04-22T01:59:59.077Z,35.63
2019-04-22T02:02:39.944Z,35.58
2019-04-22T02:05:15.788Z,35.75
2019-04-22T02:07:42.347Z,47.27
2019-04-22T02:10:14.009Z,37.20
2019-04-22T02:12:43.319Z,37.05
2019-04-22T02:15:11.879Z,38.80
2019-04-22T02:17:52.970Z,35.33
2019-04-22T02:20:13.456Z,42.88
2019-04-22T02:23:45.883Z,37.53
2019-04-22T02:26:01.234Z,39.95
2019-04-22T02:28:38.473Z,43.58
2019-04-22T02:31:20.832Z,41.80
2019-04-22T02:43:52.805Z,40.15
2019-04-22T02:51:16.905Z,38.25
2019-04-22T02:54:15.255Z,39.98
2019-04-22T03:04:03.323Z,38.60
2019-04-22T03:06:32.914Z,38.00
2019-04-22T03:13:55.975Z,45.17
2019-04-22T03:16:32.001Z,43.13
2019-04-22T03:24:09.002Z,41.33
2019-04-22T03:26:45.362Z,45.63
2019-04-22T03:35:09.600Z,42.38
2019-04-22T03:39:38.037Z,47.17
2019-04-22T03:42:05.562Z,45.73
2019-04-22T03:47:16.097Z,42.83
2019-04-22T03:49:37.223Z,45.95
2019-04-22T03:52:10.809Z,44.48
2019-04-22T03:54:39.524Z,43.15
2019-04-22T03:59:54.048Z,42.13
2019-04-22T04:07:38.380Z,50.20
2019-04-22T04:14:46.392Z,44.83
2019-04-22T04:17:23.078Z,43.17
2019-04-22T04:22:21.374Z,42.88
2019-04-22T04:27:39.899Z,47.48
2019-04-22T04:32:38.911Z,45.58
2019-04-22T04:40:12.602Z,46.15
2019-04-22T04:45:11.080Z,50.03
2019-04-22T04:47:42.793Z,47.30
2019-04-22T04:49:57.416Z,47.13
2019-04-22T04:57:33.921Z,44.70
2019-04-22T05:02:37.924Z,47.27
2019-04-22T05:07:38.541Z,45.98
2019-04-22T05:10:13.806Z,45.43
2019-04-22T05:20:13.454Z,45.08
2019-04-22T05:22:35.244Z,41.18
2019-04-22T05:25:04.832Z,41.02
2019-04-22T05:32:37.263Z,39.78
2019-04-22T05:35:06.773Z,42.13
2019-04-22T05:37:45.710Z,49.05
2019-04-22T05:40:16.668Z,39.50
2019-04-22T05:42:39.421Z,40.00
2019-04-22T05:47:42.198Z,38.00
2019-04-22T05:50:13.199Z,43.13
2019-04-22T05:52:51.137Z,39.33
2019-04-22T05:55:23.766Z,42.70
2019-04-22T05:57:51.255Z,36.13
2019-04-22T06:00:30.959Z,35.38
2019-04-22T06:02:56.795Z,39.40
2019-04-22T06:05:33.190Z,39.08
2019-04-22T06:08:02.517Z,40.10
2019-04-22T06:13:00.780Z,34.90
2019-04-22T06:15:36.155Z,35.43
2019-04-22T06:18:16.022Z,38.42
2019-04-22T06:20:37.300Z,37.13
2019-04-22T06:23:12.650Z,40.45
2019-04-22T06:25:57.528Z,32.03
2019-04-22T06:30:41.473Z,37.15
2019-04-22T06:33:12.944Z,36.17
2019-04-22T06:35:47.341Z,40.65
2019-04-22T06:38:30.471Z,36.65
2019-04-22T06:40:46.816Z,33.02
2019-04-22T06:43:19.950Z,32.90
2019-04-22T06:45:43.573Z,35.90
2019-04-22T06:48:19.182Z,32.70
2019-04-22T06:50:47.576Z,37.50
2019-04-22T06:53:17.493Z,35.17
2019-04-22T06:55:51.329Z,29.50
2019-04-22T06:58:20.235Z,30.60
2019-04-22T07:01:09.730Z,32.23
2019-04-22T07:05:52.265Z,26.97
2019-04-22T07:13:27.468Z,30.10
2019-04-22T07:18:37.273Z,32.60
2019-04-22T07:21:01.417Z,25.55
2019-04-22T07:23:41.432Z,28.17
2019-04-22T07:26:29.089Z,25.02
2019-04-22T07:29:01.729Z,24.60
2019-04-22T07:31:34.094Z,28.50
2019-04-22T07:34:17.770Z,23.65
2019-04-22T07:39:10.425Z,23.55
2019-04-22T07:41:38.306Z,24.43
2019-04-22T07:46:41.776Z,21.95
2019-04-22T07:49:10.599Z,20.30
2019-04-22T07:51:44.493Z,25.15
2019-04-22T07:54:14.395Z,18.75
2019-04-22T07:56:47.081Z,20.40
2019-04-22T07:59:15.334Z,21.10
2019-04-22T08:01:42.221Z,15.78
2019-04-22T08:04:23.125Z,18.70
2019-04-22T08:06:52.797Z,17.85
2019-04-22T08:09:19.924Z,16.30
2019-04-22T08:14:27.062Z,21.05
2019-04-22T08:17:02.873Z,18.77
2019-04-22T08:21:59.981Z,19.80
2019-04-22T08:24:29.315Z,17.73
2019-04-22T08:26:58.264Z,17.65
2019-04-22T08:32:01.178Z,23.42
2019-04-22T08:34:29.627Z,23.12
2019-04-22T08:39:48.658Z,17.77
2019-04-22T08:42:15.858Z,21.60
2019-04-22T08:47:19.170Z,20.70
2019-04-22T08:49:42.566Z,18.05
2019-04-22T08:54:44.603Z,19.75
2019-04-22T08:57:12.124Z,18.20
2019-04-22T08:59:46.231Z,18.65
2019-04-22T09:02:20.508Z,18.92
2019-04-22T09:04:42.106Z,22.58
2019-04-22T09:12:23.964Z,17.10
2019-04-22T09:14:47.629Z,16.15
2019-04-22T09:17:21.376Z,17.77
2019-04-22T09:19:56.627Z,20.95
2019-04-22T09:22:36.837Z,19.55
2019-04-22T09:24:54.067Z,15.05
2019-04-22T09:27:37.029Z,14.33
2019-04-22T09:30:02.889Z,15.90
2019-04-22T09:32:32.792Z,18.25
2019-04-22T09:34:56.286Z,14.83
2019-04-22T09:37:34.129Z,17.25
2019-04-22T09:40:07.335Z,12.20
2019-04-22T09:42:37.245Z,16.93
2019-04-22T09:45:05.859Z,17.82
2019-04-22T09:47:40.904Z,13.80
2019-04-22T09:50:24.093Z,12.88
2019-04-22T09:52:35.944Z,16.15
2019-04-22T09:57:43.282Z,21.25
2019-04-22T10:00:15.211Z,16.55
2019-04-22T10:07:39.235Z,9.25
2019-04-22T10:10:15.051Z,11.90
2019-04-22T10:12:42.275Z,9.70
2019-04-22T10:15:13.742Z,14.35
2019-04-22T10:17:44.346Z,13.20
2019-04-22T10:20:22.349Z,11.38
2019-04-22T10:25:21.568Z,6.28
2019-04-22T10:27:55.285Z,10.95
2019-04-22T10:30:23.577Z,7.80
2019-04-22T10:32:47.953Z,7.85
2019-04-22T10:35:15.571Z,12.30
2019-04-22T10:37:42.743Z,7.35
2019-04-22T10:40:15.809Z,7.92
2019-04-22T10:42:45.375Z,8.00
2019-04-22T10:45:16.406Z,8.50
2019-04-22T10:47:45.879Z,8.68
2019-04-22T10:50:16.886Z,6.57
2019-04-22T10:52:47.603Z,8.85
2019-04-22T10:55:17.431Z,9.58
2019-04-22T10:57:46.589Z,10.08
2019-04-22T11:00:15.901Z,12.15
2019-04-22T11:05:28.531Z,9.93
2019-04-22T11:08:02.773Z,12.43
2019-04-22T11:10:44.521Z,9.15
2019-04-22T11:13:00.905Z,10.10
2019-04-22T11:15:30.748Z,7.33
2019-04-22T11:18:00.072Z,13.55
2019-04-22T11:20:29.350Z,8.18
2019-04-22T11:22:58.684Z,9.68
2019-04-22T11:25:27.969Z,14.25
2019-04-22T11:27:57.822Z,15.45
2019-04-22T11:30:28.344Z,13.98
2019-04-22T11:32:58.395Z,13.13
2019-04-22T11:35:28.011Z,11.45
2019-04-22T11:37:57.303Z,10.50
2019-04-22T11:40:34.794Z,7.40
2019-04-22T11:42:59.617Z,8.95
2019-04-22T11:45:29.256Z,15.32
2019-04-22T11:47:59.524Z,8.97
2019-04-22T11:52:58.590Z,9.35
2019-04-22T11:55:28.845Z,19.27
2019-04-22T11:57:58.915Z,11.63
2019-04-22T12:00:34.993Z,7.28
2019-04-22T12:03:07.290Z,12.75
2019-04-22T12:05:37.574Z,12.30
2019-04-22T12:08:07.176Z,10.50
2019-04-22T12:13:08.008Z,11.78
2019-04-22T12:15:37.451Z,7.37
2019-04-22T12:18:08.807Z,6.57
2019-04-22T12:20:39.205Z,11.30
2019-04-22T12:25:46.461Z,8.15
2019-04-22T12:28:11.063Z,9.15
2019-04-22T12:30:41.741Z,9.60
2019-04-22T12:33:14.519Z,7.12
2019-04-22T12:35:42.307Z,10.45
2019-04-22T12:38:13.145Z,10.25
2019-04-22T12:40:51.269Z,11.00
2019-04-22T12:43:16.185Z,13.50
2019-04-22T12:45:44.834Z,12.30
2019-04-22T12:48:15.060Z,8.28
2019-04-22T12:50:47.739Z,9.75
2019-04-22T12:53:19.767Z,9.83
2019-04-22T12:55:47.966Z,13.40
2019-04-22T12:58:18.139Z,7.50
2019-04-22T13:00:48.452Z,10.65
2019-04-22T13:03:18.263Z,12.75
2019-04-22T13:05:49.336Z,8.65
2019-04-22T13:08:19.877Z,9.05
2019-04-22T13:10:56.809Z,7.58
2019-04-22T13:13:20.782Z,13.85
2019-04-22T13:18:29.358Z,7.97
2019-04-22T13:20:52.650Z,8.50
2019-04-22T13:23:22.258Z,9.25
2019-04-22T13:25:52.650Z,5.45
2019-04-22T13:28:23.062Z,8.48
2019-04-22T13:30:52.809Z,7.40
2019-04-22T13:33:23.203Z,12.55
2019-04-22T13:35:54.235Z,9.33
2019-04-22T13:38:24.984Z,16.00
2019-04-22T13:43:25.283Z,12.30
2019-04-22T13:45:56.047Z,10.70
2019-04-22T13:48:51.747Z,9.05
2019-04-22T13:54:18.556Z,7.47
2019-04-22T13:54:36.574Z,11.35
2019-04-22T13:56:19.158Z,10.68
2019-04-22T13:58:44.689Z,10.15
2019-04-22T14:01:07.685Z,9.10
2019-04-22T14:03:54.551Z,6.72
2019-04-22T14:06:25.049Z,7.03
2019-04-22T14:08:55.677Z,4.30
2019-04-22T14:11:32.399Z,4.92
2019-04-22T14:13:56.743Z,5.53
2019-04-22T14:16:27.021Z,10.18
2019-04-22T14:18:56.256Z,7.45
2019-04-22T14:21:25.833Z,9.55
2019-04-22T14:23:56.446Z,5.65
2019-04-22T14:26:27.099Z,6.62
2019-04-22T14:28:57.586Z,6.25
2019-04-22T14:31:26.825Z,7.25
2019-04-22T14:34:01.024Z,7.97
2019-04-22T14:36:27.557Z,7.75
2019-04-22T14:41:42.563Z,7.00
2019-04-22T14:44:56.571Z,7.35
2019-04-22T14:46:56.734Z,5.87
2019-04-22T14:49:23.878Z,9.58
2019-04-22T14:52:02.075Z,5.65
2019-04-22T14:54:19.710Z,8.38
2019-04-22T14:56:34.162Z,7.85
2019-04-22T14:59:04.994Z,10.32
2019-04-22T15:01:35.324Z,9.08
2019-04-22T15:04:05.511Z,13.90
2019-04-22T15:06:36.146Z,7.62
2019-04-22T15:09:08.408Z,12.10
2019-04-22T15:11:52.491Z,7.97
2019-04-22T15:14:09.661Z,12.43
2019-04-22T15:16:46.952Z,5.47
2019-04-22T15:19:30.079Z,9.08
2019-04-22T15:22:00.704Z,8.63
2019-04-22T15:24:30.009Z,7.10
2019-04-22T15:27:00.546Z,8.03
2019-04-22T15:29:31.403Z,9.43
2019-04-22T15:32:00.910Z,6.50
2019-04-22T15:34:30.542Z,9.30
2019-04-22T15:37:00.159Z,6.45
2019-04-22T15:39:29.420Z,8.83
2019-04-22T15:42:09.517Z,7.45
2019-04-22T15:44:30.442Z,8.00
2019-04-22T15:47:00.907Z,13.30
2019-04-22T15:49:31.885Z,9.03
2019-04-22T15:52:03.005Z,9.53
2019-04-22T15:54:32.295Z,8.68
2019-04-22T15:57:02.487Z,12.28
2019-04-22T15:59:52.293Z,9.03
2019-04-22T16:02:04.506Z,11.83
2019-04-22T16:04:34.693Z,9.88
2019-04-22T16:07:05.145Z,12.73
2019-04-22T16:09:35.019Z,6.47
2019-04-22T16:12:18.615Z,8.15
2019-04-22T16:14:41.890Z,9.88
2019-04-22T16:17:08.637Z,12.37
2019-04-22T16:19:39.174Z,12.63
2019-04-22T16:22:15.187Z,8.35
2019-04-22T16:24:47.943Z,7.12
2019-04-22T16:27:20.647Z,11.00
2019-04-22T16:29:51.282Z,10.23
2019-04-22T16:32:21.304Z,14.35
2019-04-22T16:34:50.746Z,10.53
2019-04-22T16:37:20.935Z,7.97
2019-04-22T16:39:56.543Z,7.37
2019-04-22T16:43:04.194Z,10.23
2019-04-22T16:45:31.740Z,11.05
2019-04-22T16:48:09.404Z,9.95
2019-04-22T16:50:41.862Z,10.38
2019-04-22T16:53:10.525Z,11.28
2019-04-22T16:55:40.996Z,9.25
2019-04-22T16:58:10.706Z,5.65
2019-04-22T17:00:40.725Z,10.90
2019-04-22T17:03:28.908Z,6.87
2019-04-22T17:06:13.824Z,6.37
2019-04-22T17:08:44.575Z,6.50
2019-04-22T17:11:13.813Z,6.28
2019-04-22T17:13:44.564Z,7.22
2019-04-22T17:16:14.052Z,8.63
2019-04-22T17:18:43.655Z,10.18
2019-04-22T17:21:14.689Z,5.65
2019-04-22T17:23:45.580Z,7.42
2019-04-22T17:26:14.961Z,7.47
2019-04-22T17:28:44.189Z,11.15
2019-04-22T17:31:13.889Z,8.63
2019-04-22T17:33:44.650Z,10.27
2019-04-22T17:36:14.141Z,5.08
2019-04-22T17:38:54.329Z,9.48
2019-04-22T17:41:24.479Z,7.30
2019-04-22T17:44:13.644Z,7.28
2019-04-22T17:46:41.737Z,6.12
2019-04-22T17:49:37.178Z,5.08
2019-04-22T17:54:49.259Z,9.90
2019-04-22T17:57:22.491Z,5.47
2019-04-22T17:59:55.372Z,5.80
2019-04-22T18:02:23.890Z,7.87
2019-04-22T18:04:45.663Z,10.15
2019-04-22T18:07:23.377Z,8.10
2019-04-22T18:10:23.401Z,6.40
2019-04-22T18:15:14.640Z,4.47
2019-04-22T18:17:35.670Z,4.75
2019-04-22T18:19:58.322Z,4.97
2019-04-22T18:22:21.802Z,4.08
2019-04-22T18:24:56.876Z,5.40
2019-04-22T18:27:49.044Z,10.25
2019-04-22T18:29:59.967Z,8.40
2019-04-22T18:32:32.650Z,6.55
2019-04-22T18:35:00.055Z,5.45
2019-04-22T18:37:41.375Z,6.25
2019-04-22T18:40:11.239Z,10.60
2019-04-22T18:42:31.664Z,3.85
2019-04-22T18:45:23.369Z,6.92
2019-04-22T18:47:38.720Z,8.20
2019-04-22T18:50:08.700Z,6.72
2019-04-22T18:53:03.247Z,6.70
2019-04-22T18:55:30.914Z,4.80
2019-04-22T18:58:04.113Z,9.55
2019-04-22T19:00:37.566Z,6.97
2019-04-22T19:03:15.609Z,7.97
2019-04-22T19:06:00.983Z,5.15
2019-04-22T19:08:34.615Z,2.90
2019-04-22T19:11:08.174Z,6.50
2019-04-22T19:16:19.708Z,10.08
2019-04-22T19:18:41.852Z,4.33
2019-04-22T19:21:19.381Z,5.37
2019-04-22T19:23:38.973Z,5.72
2019-04-22T19:26:11.914Z,3.65
2019-04-22T19:28:41.889Z,4.70
2019-04-22T19:31:15.396Z,4.80
2019-04-22T19:33:49.263Z,3.87
2019-04-22T19:36:14.690Z,7.03
2019-04-22T19:38:34.046Z,8.13
2019-04-22T19:41:19.944Z,6.03
2019-04-22T19:43:51.157Z,7.17
2019-04-22T19:46:16.743Z,4.60
2019-04-22T19:48:49.797Z,4.05
2019-04-22T19:51:24.115Z,9.25
2019-04-22T19:53:54.739Z,4.65
2019-04-22T19:56:20.471Z,7.37
2019-04-22T19:58:47.676Z,4.80
2019-04-22T20:01:23.655Z,7.40
2019-04-22T20:04:12.111Z,6.25
2019-04-22T20:06:38.095Z,3.20
2019-04-22T20:09:13.580Z,7.03
2019-04-22T20:11:38.695Z,3.37
2019-04-22T20:14:12.582Z,6.58
2019-04-22T20:16:37.413Z,6.97
2019-04-22T20:19:19.317Z,5.90
2019-04-22T20:21:49.957Z,6.60
2019-04-22T20:24:07.954Z,5.28
2019-04-22T20:26:49.902Z,4.30
2019-04-22T20:29:27.086Z,10.28
2019-04-22T20:31:54.429Z,5.83
2019-04-22T20:34:28.339Z,10.53
2019-04-22T20:37:09.039Z,4.47
2019-04-22T20:39:28.853Z,5.20
2019-04-22T20:42:05.651Z,6.95
2019-04-22T20:45:03.962Z,12.00
2019-04-22T20:46:57.326Z,8.38
2019-04-22T20:49:30.896Z,8.55
2019-04-22T20:52:08.653Z,4.70
2019-04-22T20:54:39.108Z,5.08
2019-04-22T20:57:05.861Z,5.60
2019-04-22T20:59:33.034Z,7.50
2019-04-22T21:02:03.128Z,6.67
2019-04-22T21:04:26.065Z,8.73
2019-04-22T21:07:05.159Z,10.03
2019-04-22T21:09:41.103Z,8.63
2019-04-22T21:12:04.821Z,6.83
2019-04-22T21:14:44.295Z,6.12
2019-04-22T21:17:13.535Z,6.80
2019-04-22T21:19:46.464Z,7.95
2019-04-22T21:22:18.170Z,4.25
2019-04-22T21:24:46.051Z,7.83
2019-04-22T21:27:20.910Z,4.30
2019-04-22T21:29:43.556Z,4.87
2019-04-22T21:32:17.531Z,4.22
2019-04-22T21:35:03.885Z,6.25
2019-04-22T21:37:25.218Z,8.28
2019-04-22T21:39:46.387Z,5.22
2019-04-22T21:42:21.529Z,8.95
2019-04-22T21:44:51.025Z,6.30
2019-04-22T21:47:29.015Z,3.98
2019-04-22T21:50:19.633Z,3.77
2019-04-22T21:52:28.045Z,4.28
2019-04-22T21:55:07.019Z,6.95
2019-04-22T21:57:35.709Z,3.17
2019-04-22T22:00:19.551Z,3.52
2019-04-22T22:02:41.267Z,5.35
2019-04-22T22:05:07.192Z,6.33
2019-04-22T22:07:24.646Z,9.45
2019-04-22T22:10:09.330Z,5.03
2019-04-22T22:12:40.812Z,7.30
2019-04-22T22:15:16.629Z,4.42
2019-04-22T22:17:42.892Z,4.37
2019-04-22T22:20:13.710Z,5.85
2019-04-22T22:25:14.361Z,3.85
2019-04-22T22:27:46.589Z,5.58
2019-04-22T22:30:37.158Z,11.30
2019-04-22T22:33:00.161Z,3.47
2019-04-22T22:35:20.694Z,6.37
2019-04-22T22:37:50.638Z,5.05
2019-04-22T22:40:10.711Z,6.30
2019-04-22T22:42:38.983Z,2.22
2019-04-22T22:45:19.260Z,5.47
2019-04-22T22:48:05.697Z,3.22
2019-04-22T22:50:28.294Z,7.95
2019-04-22T22:53:17.220Z,3.70
2019-04-22T22:55:27.760Z,4.55
2019-04-22T22:58:06.195Z,5.33
2019-04-22T23:00:32.015Z,10.90
2019-04-22T23:03:36.687Z,3.22
2019-04-22T23:05:37.651Z,4.00
2019-04-22T23:08:11.748Z,6.90
2019-04-22T23:10:52.198Z,5.20
2019-04-22T23:13:14.681Z,5.25
2019-04-22T23:15:37.090Z,5.45
2019-04-22T23:17:51.858Z,2.67
2019-04-22T23:20:27.503Z,2.52
2019-04-22T23:23:17.252Z,3.77
2019-04-22T23:25:41.520Z,10.50
2019-04-22T23:28:13.326Z,4.97
2019-04-22T23:30:38.235Z,4.62
2019-04-22T23:33:21.832Z,10.32
2019-04-22T23:35:51.827Z,9.95
2019-04-22T23:38:27.072Z,4.08
2019-04-22T23:41:00.219Z,9.05
2019-04-22T23:43:32.561Z,8.20
2019-04-22T23:46:02.407Z,5.25
2019-04-22T23:48:27.990Z,4.25
2019-04-22T23:51:08.680Z,10.72
2019-04-22T23:53:57.500Z,6.85
2019-04-22T23:56:07.819Z,6.35
